Time;durP1;ratioP1;P1;durP2;ratioP2;P2;SDS_P1;SDS_P2;PMS_P1;PMS_P2;Temp;Humidity;BMP_temperature;BMP_pressure;BME280_temperature;BME280_humidity;BME280_pressure;Samples;Min_cycle;Max_cycle;Signal;HPM_P1;HPM_P2
2021/12/08 00:01:22;;;;;;;5.35;2.10;;;;;;;5.01;92.20;99039.88;5032501;28;20487;-67
2021/12/08 00:03:49;;;;;;;5.38;2.40;;;;;;;5.05;92.28;99027.63;5033616;28;20087;-68
2021/12/08 00:06:14;;;;;;;5.13;2.40;;;;;;;5.07;92.13;99025.56;5034246;28;20116;-68
2021/12/08 00:08:45;;;;;;;4.70;2.25;;;;;;;5.09;92.74;99007.38;5034423;28;20115;-69
2021/12/08 00:13:54;;;;;;;5.65;2.45;;;;;;;5.13;93.27;99010.38;5033973;28;20098;-69
2021/12/08 00:16:20;;;;;;;7.38;2.42;;;;;;;5.14;92.52;98999.41;5034381;28;20029;-69
2021/12/08 00:18:48;;;;;;;5.88;2.30;;;;;;;5.21;92.94;99003.84;5034105;28;20040;-69
2021/12/08 00:21:14;;;;;;;5.05;2.20;;;;;;;5.23;93.28;99007.13;5034394;28;20034;-68
2021/12/08 00:23:40;;;;;;;5.72;2.38;;;;;;;5.24;93.22;98998.00;5016521;28;20392;-68
2021/12/08 00:26:06;;;;;;;3.45;2.00;;;;;;;5.25;93.04;99002.31;5015878;28;20037;-68
2021/12/08 00:28:32;;;;;;;3.85;2.13;;;;;;;5.29;93.32;99014.22;5034090;28;20075;-68
2021/12/08 00:30:59;;;;;;;7.55;2.20;;;;;;;5.32;93.33;99029.84;5033600;28;20030;-68
2021/12/08 00:33:30;;;;;;;4.70;2.05;;;;;;;5.33;93.60;99040.34;5034048;28;20041;-69
2021/12/08 00:35:57;;;;;;;3.92;2.03;;;;;;;5.35;92.94;99024.00;5033385;28;20499;-68
2021/12/08 00:38:23;;;;;;;3.97;1.92;;;;;;;5.36;93.89;99009.56;5033903;28;20432;-68
2021/12/08 00:40:50;;;;;;;2.55;1.77;;;;;;;5.40;93.73;99009.88;5033282;28;20117;-67
2021/12/08 00:43:18;;;;;;;3.50;2.08;;;;;;;5.37;93.77;99008.47;5033738;28;20461;-67
2021/12/08 00:45:44;;;;;;;3.47;1.98;;;;;;;5.42;93.66;99002.41;5033673;28;20037;-68
2021/12/08 00:48:09;;;;;;;4.68;1.90;;;;;;;5.43;92.73;99012.91;5033374;28;20455;-69
2021/12/08 00:50:36;;;;;;;4.05;1.92;;;;;;;5.44;93.52;99019.91;5033906;28;20030;-69
2021/12/08 00:53:04;;;;;;;5.03;1.92;;;;;;;5.46;93.78;99025.03;5033507;28;20029;-69
2021/12/08 00:55:29;;;;;;;4.97;1.73;;;;;;;5.47;93.34;99024.78;5033588;28;20427;-68
2021/12/08 00:57:55;;;;;;;4.95;1.90;;;;;;;5.50;93.42;99024.31;5015852;28;20033;-68
2021/12/08 01:00:23;;;;;;;4.43;1.75;;;;;;;5.52;93.45;99029.44;5033306;28;20037;-68
2021/12/08 01:02:49;;;;;;;1.95;1.38;;;;;;;5.54;93.61;99045.31;5032102;28;20473;-68
2021/12/08 01:05:18;;;;;;;2.00;1.80;;;;;;;5.54;93.33;99040.78;5033172;28;20029;-66
2021/12/08 01:07:44;;;;;;;5.63;1.95;;;;;;;5.57;93.46;99055.56;5033319;28;20416;-68
2021/12/08 01:10:15;;;;;;;3.35;2.22;;;;;;;5.58;93.58;99057.22;5033402;28;20052;-69
2021/12/08 01:12:40;;;;;;;4.97;1.73;;;;;;;5.61;93.16;99046.00;5030910;28;20255;-68
2021/12/08 01:15:06;;;;;;;6.72;1.70;;;;;;;5.63;93.54;99051.94;5032004;28;20033;-68
2021/12/08 01:17:32;;;;;;;3.85;1.63;;;;;;;5.65;93.16;99063.28;5032815;28;20087;-69
2021/12/08 01:19:58;;;;;;;4.50;1.73;;;;;;;5.68;93.53;99057.44;5032732;28;20069;-69
2021/12/08 01:22:24;;;;;;;2.22;1.70;;;;;;;5.67;93.11;99059.28;5032902;28;20469;-69
2021/12/08 01:24:49;;;;;;;3.50;1.77;;;;;;;5.71;93.25;99061.47;5015407;28;20068;-68
2021/12/08 01:27:14;;;;;;;5.20;1.95;;;;;;;5.71;93.35;99062.31;5032643;28;20492;-69
2021/12/08 01:29:40;;;;;;;5.00;2.00;;;;;;;5.73;93.01;99073.63;5032895;28;20064;-69
2021/12/08 01:32:07;;;;;;;5.55;1.80;;;;;;;5.72;93.22;99058.56;5032860;28;20032;-68
2021/12/08 01:34:32;;;;;;;5.25;2.40;;;;;;;5.75;92.95;99079.59;5032455;28;20040;-68
2021/12/08 01:36:58;;;;;;;4.78;1.98;;;;;;;5.75;93.80;99076.06;5032605;28;20038;-69
2021/12/08 01:39:23;;;;;;;4.82;2.30;;;;;;;5.78;93.30;99068.38;5032918;28;20108;-69
2021/12/08 01:41:48;;;;;;;5.47;2.13;;;;;;;5.77;93.20;99069.41;5032414;28;20041;-68
2021/12/08 01:46:58;;;;;;;4.53;1.98;;;;;;;5.80;92.72;99079.69;5032498;28;20551;-67
2021/12/08 01:49:23;;;;;;;4.20;2.22;;;;;;;5.80;93.14;99077.00;5032691;28;20034;-68
2021/12/08 01:51:49;;;;;;;6.80;2.50;;;;;;;5.82;93.39;99076.75;5032527;28;20064;-69
2021/12/08 01:54:16;;;;;;;7.88;2.00;;;;;;;5.82;94.05;99088.31;5032391;28;20068;-69
2021/12/08 01:56:42;;;;;;;9.68;2.15;;;;;;;5.82;93.30;99082.94;5032189;28;20040;-69
2021/12/08 01:59:09;;;;;;;6.32;2.00;;;;;;;5.81;93.02;99081.31;5032187;28;20021;-67
2021/12/08 02:01:36;;;;;;;7.38;2.60;;;;;;;5.84;93.46;99096.13;5030154;28;20088;-68
2021/12/08 02:04:04;;;;;;;6.68;2.00;;;;;;;5.84;93.34;99094.28;5032031;28;20033;-69
2021/12/08 02:06:35;;;;;;;7.38;2.10;;;;;;;5.86;93.20;99094.84;5032438;28;20022;-69
2021/12/08 02:09:04;;;;;;;5.22;1.95;;;;;;;5.86;93.23;99094.84;5032027;28;20033;-69
2021/12/08 02:11:29;;;;;;;5.28;2.25;;;;;;;5.87;92.90;99098.31;5032168;28;20030;-68
2021/12/08 02:14:00;;;;;;;6.45;2.00;;;;;;;5.89;92.68;99103.47;5032167;28;20032;-68
2021/12/08 02:16:26;;;;;;;7.27;1.83;;;;;;;5.89;92.58;99108.81;5032361;28;20147;-68
2021/12/08 02:18:52;;;;;;;7.95;2.17;;;;;;;5.90;91.94;99107.78;5031949;28;20429;-68
2021/12/08 02:21:26;;;;;;;6.50;2.10;;;;;;;5.90;91.92;99113.16;5014156;28;20029;-68
2021/12/08 02:23:53;;;;;;;8.68;2.47;;;;;;;5.91;91.70;99120.97;5014536;28;20033;-69
2021/12/08 02:26:19;;;;;;;10.30;2.33;;;;;;;5.89;91.52;99133.00;5031410;28;20477;-69
2021/12/08 02:28:45;;;;;;;7.82;2.47;;;;;;;5.92;91.51;99132.50;5031908;28;20043;-69
2021/12/08 02:31:14;;;;;;;7.78;2.42;;;;;;;5.97;90.70;99122.72;5031338;28;20547;-70
2021/12/08 02:47:42;;;;;;;9.40;2.13;;;;;;;5.84;90.21;99129.16;5031532;28;20051;-70
2021/12/08 02:50:08;;;;;;;7.65;2.35;;;;;;;5.83;90.66;99132.91;5031803;28;20036;-69
2021/12/08 02:52:33;;;;;;;8.05;2.53;;;;;;;5.79;90.57;99149.72;5031880;28;20041;-70
2021/12/08 02:55:07;;;;;;;7.50;2.20;;;;;;;5.80;90.31;99154.03;5031197;28;20035;-71
2021/12/08 02:57:32;;;;;;;5.75;2.08;;;;;;;5.78;91.01;99143.53;5031677;28;20067;-69
2021/12/08 02:59:58;;;;;;;9.10;2.13;;;;;;;5.80;90.73;99143.28;5031395;28;20038;-68
2021/12/08 03:02:23;;;;;;;7.70;2.00;;;;;;;5.78;91.28;99132.78;5029558;28;20032;-70
2021/12/08 03:04:49;;;;;;;9.05;2.40;;;;;;;5.81;90.13;99143.06;5031535;28;20033;-71
2021/12/08 03:07:14;;;;;;;7.60;2.13;;;;;;;5.84;90.34;99137.22;5031358;28;20041;-69
2021/12/08 03:09:40;;;;;;;8.90;2.30;;;;;;;5.83;90.62;99140.94;5031004;28;20033;-68
2021/12/08 03:12:07;;;;;;;9.55;2.10;;;;;;;5.86;90.86;99140.47;5031555;28;20026;-70
2021/12/08 03:14:32;;;;;;;8.30;2.60;;;;;;;5.86;90.87;99145.84;5031501;28;20069;-69
2021/12/08 03:17:03;;;;;;;6.97;1.92;;;;;;;5.90;90.36;99156.09;5031492;28;20064;-68
2021/12/08 03:19:30;;;;;;;8.20;2.03;;;;;;;5.89;89.87;99154.47;5013622;28;20029;-69
2021/12/08 03:21:56;;;;;;;7.50;2.15;;;;;;;5.91;89.62;99157.75;5031741;28;20029;-70
2021/12/08 03:24:28;;;;;;;10.50;2.42;;;;;;;5.86;88.44;99159.25;5031025;28;20476;-70
2021/12/08 03:29:27;;;;;;;9.55;2.00;;;;;;;5.91;87.54;99163.13;5031326;28;20045;-70
2021/12/08 03:31:55;;;;;;;7.47;2.00;;;;;;;5.91;86.85;99177.34;5031395;28;20037;-68
2021/12/08 03:34:24;;;;;;;11.05;2.45;;;;;;;5.86;86.80;99172.69;5031391;28;20036;-69
2021/12/08 03:36:50;;;;;;;8.07;1.98;;;;;;;5.86;86.84;99178.06;5031604;28;20029;-70
2021/12/08 03:39:15;;;;;;;10.80;2.45;;;;;;;5.85;86.36;99171.03;5034097;28;20388;-69
2021/12/08 03:41:41;;;;;;;7.45;1.90;;;;;;;5.84;86.39;99169.44;5035137;28;20041;-69
2021/12/08 03:44:07;;;;;;;5.85;2.30;;;;;;;5.82;86.11;99163.47;5034327;28;20065;-70
2021/12/08 03:46:39;;;;;;;9.57;1.90;;;;;;;5.80;87.00;99157.53;5016967;28;20136;-70
2021/12/08 03:49:09;;;;;;;6.40;2.22;;;;;;;5.77;86.56;99162.56;5034496;28;20041;-69
2021/12/08 03:51:34;;;;;;;11.00;1.98;;;;;;;5.75;86.61;99165.47;5034942;28;20083;-68
2021/12/08 03:53:59;;;;;;;6.28;1.67;;;;;;;5.75;85.89;99170.00;5034838;28;20037;-70
2021/12/08 03:56:25;;;;;;;7.95;1.98;;;;;;;5.75;85.22;99170.00;5034700;28;20365;-69
2021/12/08 03:58:50;;;;;;;11.02;2.10;;;;;;;5.72;85.74;99189.28;5034868;28;20029;-69
2021/12/08 04:01:15;;;;;;;7.40;1.88;;;;;;;5.70;85.31;99186.00;5031793;28;20678;-70
2021/12/08 04:03:48;;;;;;;10.10;2.20;;;;;;;5.66;85.32;99180.28;5034720;28;20030;-69
2021/12/08 04:06:26;;;;;;;7.10;1.88;;;;;;;5.62;85.63;99181.81;5034201;28;20028;-69
2021/12/08 04:08:56;;;;;;;9.10;2.13;;;;;;;5.61;85.34;99197.06;5027932;28;20037;-68
2021/12/08 04:11:24;;;;;;;4.53;1.65;;;;;;;5.57;85.55;99190.56;5034023;28;20108;-70
2021/12/08 04:14:03;;;;;;;10.23;2.05;;;;;;;5.57;85.28;99190.56;5034467;28;20033;-70
2021/12/08 04:16:42;;;;;;;9.98;2.50;;;;;;;5.53;85.52;99189.38;5034353;28;20033;-70
2021/12/08 04:19:09;;;;;;;11.75;2.40;;;;;;;5.47;86.32;99185.75;5034099;28;20025;-70
2021/12/08 04:21:36;;;;;;;7.82;2.13;;;;;;;5.45;85.65;99187.88;5033962;28;20500;-68
2021/12/08 04:24:01;;;;;;;9.98;2.10;;;;;;;5.40;85.96;99195.78;5034101;28;20029;-70
2021/12/08 04:26:38;;;;;;;11.25;2.00;;;;;;;5.38;85.49;99195.22;5033730;28;20149;-71
2021/12/08 04:29:06;;;;;;;6.85;2.00;;;;;;;5.38;86.49;99197.09;5034116;28;20099;-70
2021/12/08 04:31:35;;;;;;;9.90;2.00;;;;;;;5.33;86.60;99203.94;5016628;28;20472;-70
2021/12/08 04:34:05;;;;;;;9.13;2.30;;;;;;;5.35;86.32;99219.00;5034518;28;20025;-70
2021/12/08 04:36:42;;;;;;;9.40;2.33;;;;;;;5.33;86.50;99206.63;5034486;28;20036;-70
2021/12/08 04:39:13;;;;;;;8.70;1.95;;;;;;;5.32;86.02;99207.66;5016454;28;20029;-69
2021/12/08 04:41:44;;;;;;;11.20;2.65;;;;;;;5.30;85.88;99206.28;5034360;28;20099;-70
2021/12/08 04:44:23;;;;;;;6.10;1.48;;;;;;;5.27;84.95;99204.06;5034193;28;20091;-70
2021/12/08 04:52:52;;;;;;;7.65;1.92;;;;;;;5.20;85.33;99196.09;5034217;28;20052;-68
2021/12/08 05:04:03;;;;;;;8.80;2.00;;;;;;;5.12;84.84;99210.66;5014065;28;20037;-70
2021/12/08 05:09:11;;;;;;;10.85;2.20;;;;;;;5.10;84.46;99233.38;5026485;28;20571;-70
2021/12/08 05:11:42;;;;;;;7.25;1.70;;;;;;;5.11;84.18;99224.31;5033474;28;20431;-71
2021/12/08 05:14:16;;;;;;;9.55;2.10;;;;;;;5.12;84.01;99228.63;5033251;28;20061;-70
2021/12/08 05:16:45;;;;;;;6.68;1.67;;;;;;;5.13;83.34;99228.41;5033779;28;20104;-69
2021/12/08 05:19:14;;;;;;;12.63;2.28;;;;;;;5.15;84.28;99225.50;5032109;28;20065;-69
2021/12/08 05:21:47;;;;;;;8.20;2.10;;;;;;;5.18;83.65;99226.88;5033360;28;20440;-70
2021/12/08 05:24:20;;;;;;;9.40;2.42;;;;;;;5.19;83.38;99225.84;5032804;28;20499;-70
2021/12/08 05:26:53;;;;;;;8.85;1.88;;;;;;;5.18;83.34;99232.22;5033527;28;20044;-70
2021/12/08 05:29:32;;;;;;;8.15;2.28;;;;;;;5.19;83.09;99234.69;5033127;28;20032;-70
2021/12/08 05:31:59;;;;;;;9.45;1.52;;;;;;;5.13;83.72;99231.09;5033418;28;20033;-70
2021/12/08 05:34:25;;;;;;;7.18;1.90;;;;;;;5.15;83.42;99231.66;5033183;28;20045;-69
2021/12/08 05:36:51;;;;;;;10.95;1.83;;;;;;;5.10;83.52;99239.59;5033316;28;20029;-68
2021/12/08 05:39:20;;;;;;;9.05;2.00;;;;;;;5.08;83.87;99238.16;5032537;28;20037;-69
2021/12/08 05:41:47;;;;;;;15.20;2.40;;;;;;;5.10;83.93;99255.69;5033408;28;20037;-68
2021/12/08 05:44:13;;;;;;;12.98;1.98;;;;;;;5.12;83.45;99252.75;5033116;28;20064;-70
2021/12/08 05:46:42;;;;;;;14.57;2.83;;;;;;;5.12;83.82;99253.56;5033186;28;20453;-69
2021/12/08 05:49:09;;;;;;;14.55;2.35;;;;;;;5.13;83.45;99259.75;5033106;28;20033;-70
2021/12/08 05:51:35;;;;;;;11.93;2.42;;;;;;;5.14;83.70;99262.19;5033122;28;20040;-68
2021/12/08 05:54:11;;;;;;;7.07;1.60;;;;;;;5.14;83.99;99256.81;5032495;28;20038;-69
2021/12/08 05:56:36;;;;;;;9.93;2.20;;;;;;;5.09;83.78;99256.72;5033066;28;20184;-68
2021/12/08 05:59:04;;;;;;;7.82;1.98;;;;;;;5.13;84.04;99249.84;5032912;28;20120;-68
2021/12/08 06:01:45;;;;;;;8.30;1.88;;;;;;;5.13;83.61;99257.91;5029724;28;20056;-70
2021/12/08 06:04:11;;;;;;;9.38;2.10;;;;;;;5.10;83.62;99262.88;5032565;28;20423;-70
2021/12/08 06:06:38;;;;;;;10.40;2.13;;;;;;;5.07;83.70;99263.34;5032854;28;20116;-69
2021/12/08 06:09:06;;;;;;;11.68;2.70;;;;;;;5.07;83.99;99277.56;5029745;28;20392;-70
2021/12/08 06:11:32;;;;;;;14.57;2.45;;;;;;;5.06;83.22;99273.25;5031321;28;20489;-70
2021/12/08 06:13:59;;;;;;;14.40;2.88;;;;;;;5.04;83.56;99272.69;5032768;28;20100;-68
2021/12/08 06:16:26;;;;;;;12.77;2.63;;;;;;;5.04;83.43;99271.84;5032548;28;20056;-69
2021/12/08 06:18:52;;;;;;;7.75;2.35;;;;;;;5.06;83.91;99275.13;5032635;28;20029;-70
2021/12/08 06:21:24;;;;;;;10.60;2.10;;;;;;;5.05;83.18;99285.00;5032461;28;20079;-69
2021/12/08 06:23:51;;;;;;;15.68;2.97;;;;;;;5.03;82.80;99284.44;5032409;28;20029;-68
2021/12/08 06:26:19;;;;;;;14.05;2.70;;;;;;;5.00;83.09;99294.78;5032119;28;20103;-70
2021/12/08 06:28:44;;;;;;;10.95;2.25;;;;;;;4.93;82.32;99284.16;5032507;28;20057;-70
2021/12/08 06:31:11;;;;;;;18.13;2.92;;;;;;;4.92;82.74;99298.59;5032533;28;20060;-71
2021/12/08 06:33:36;;;;;;;11.82;2.40;;;;;;;4.92;82.46;99299.44;5032334;28;20049;-69
2021/12/08 06:36:17;;;;;;;10.55;2.70;;;;;;;4.92;82.48;99295.91;5032620;28;20048;-69
2021/12/08 06:38:43;;;;;;;12.23;2.45;;;;;;;4.93;82.68;99297.56;5031383;28;20033;-70
2021/12/08 06:41:17;;;;;;;13.02;2.95;;;;;;;4.89;82.03;99302.56;5032474;28;20087;-70
2021/12/08 06:43:47;;;;;;;10.40;2.80;;;;;;;4.89;82.33;99296.38;5032444;28;20040;-69
2021/12/08 06:46:14;;;;;;;11.85;2.75;;;;;;;4.85;82.09;99290.66;5032086;28;20187;-70
2021/12/08 06:48:47;;;;;;;14.77;2.70;;;;;;;4.84;82.40;99288.19;5032347;28;20075;-69
2021/12/08 06:51:24;;;;;;;12.95;2.60;;;;;;;4.81;81.69;99294.81;5031001;28;20049;-69
2021/12/08 06:53:55;;;;;;;10.93;2.65;;;;;;;4.77;82.25;99304.34;5012372;28;20525;-69
2021/12/08 06:56:30;;;;;;;9.30;1.98;;;;;;;4.76;82.35;99310.75;5012395;28;20084;-68
2021/12/08 06:58:59;;;;;;;10.60;2.63;;;;;;;4.71;82.08;99306.06;5012587;28;20037;-69
2021/12/08 07:01:46;;;;;;;12.23;2.40;;;;;;;4.68;83.41;99303.84;5010067;28;20462;-69
2021/12/08 07:07:01;;;;;;;10.68;2.33;;;;;;;4.69;82.76;99310.81;5012819;28;20052;-69
2021/12/08 07:09:29;;;;;;;;;;;;;;;4.76;82.65;99310.75;5012696;28;20045;-69
2021/12/08 07:11:56;;;;;;;13.88;2.75;;;;;;;4.67;82.57;99333.53;5012265;28;19917;-68
2021/12/08 07:14:23;;;;;;;9.75;2.75;;;;;;;4.63;82.57;99335.84;5015875;28;20406;-70
2021/12/08 07:16:53;;;;;;;12.05;2.75;;;;;;;4.59;82.30;99334.66;4998489;28;20026;-69
2021/12/08 07:19:33;;;;;;;9.55;2.50;;;;;;;4.58;82.00;99338.38;4998185;28;20129;-68
2021/12/08 07:22:04;;;;;;;11.88;2.55;;;;;;;4.52;82.74;99341.94;5027243;28;20087;-70
2021/12/08 07:24:36;;;;;;;11.13;2.65;;;;;;;4.50;82.50;99363.59;5017790;28;20125;-68
2021/12/08 07:27:09;;;;;;;10.30;2.67;;;;;;;4.48;82.43;99364.84;5035583;28;20029;-70
2021/12/08 07:29:37;;;;;;;10.95;2.35;;;;;;;4.43;82.64;99358.28;5035797;28;20601;-70
2021/12/08 07:32:10;;;;;;;12.90;2.83;;;;;;;4.46;82.87;99361.59;5035734;28;20033;-68
2021/12/08 07:34:37;;;;;;;17.02;3.33;;;;;;;4.41;82.99;99365.75;5035402;28;20021;-69
2021/12/08 07:37:11;;;;;;;12.85;2.63;;;;;;;4.40;82.21;99364.09;5033915;28;20468;-70
2021/12/08 07:39:44;;;;;;;15.15;2.75;;;;;;;4.37;82.73;99375.25;5035208;28;20072;-69
2021/12/08 07:42:32;;;;;;;10.38;2.50;;;;;;;4.40;82.76;99382.84;5035513;28;20527;-68
2021/12/08 07:45:05;;;;;;;12.38;2.30;;;;;;;4.43;82.20;99386.94;5035210;28;20064;-69
2021/12/08 07:47:31;;;;;;;11.27;2.60;;;;;;;4.39;82.80;99391.94;5035123;28;20116;-69
2021/12/08 07:50:09;;;;;;;10.57;2.08;;;;;;;4.43;82.52;99392.31;5017588;28;20113;-69
2021/12/08 07:52:40;;;;;;;6.55;2.17;;;;;;;4.44;82.68;99394.75;5015392;28;20048;-67
2021/12/08 07:55:15;;;;;;;9.90;2.55;;;;;;;4.45;82.89;99403.59;5015514;28;20037;-68
2021/12/08 07:57:42;;;;;;;12.57;2.30;;;;;;;4.46;82.32;99396.41;5015018;28;20030;-70
2021/12/08 08:00:22;;;;;;;12.30;2.60;;;;;;;4.48;82.33;99397.00;5015362;28;20036;-69
2021/12/08 08:02:49;;;;;;;11.15;2.03;;;;;;;4.50;82.02;99390.38;5026611;28;20061;-68
2021/12/08 08:05:16;;;;;;;8.52;2.30;;;;;;;4.53;82.34;99386.44;5034830;28;20029;-69
2021/12/08 08:07:43;;;;;;;12.88;3.03;;;;;;;4.54;82.47;99391.56;5034619;28;20034;-69
2021/12/08 08:10:14;;;;;;;8.88;2.28;;;;;;;4.56;82.59;99404.75;5034939;28;20032;-71
2021/12/08 08:12:43;;;;;;;12.43;2.78;;;;;;;4.59;81.36;99398.97;5034714;28;20029;-71
2021/12/08 08:15:20;;;;;;;11.32;2.40;;;;;;;4.61;81.16;99399.56;5034730;28;20033;-71
2021/12/08 08:17:47;;;;;;;8.90;2.10;;;;;;;4.61;82.14;99412.94;5029559;28;20064;-71
2021/12/08 08:20:20;;;;;;;14.57;2.40;;;;;;;4.68;81.14;99408.34;5034830;28;20075;-72
2021/12/08 08:22:46;;;;;;;8.63;2.50;;;;;;;4.62;81.30;99403.88;5034691;28;20108;-71
2021/12/08 08:25:15;;;;;;;11.25;2.38;;;;;;;4.61;80.71;99405.72;5034307;28;20117;-71
2021/12/08 08:27:41;;;;;;;11.02;2.28;;;;;;;4.60;80.04;99404.09;5034399;28;20488;-69
2021/12/08 08:30:10;;;;;;;10.43;2.35;;;;;;;4.63;80.82;99408.19;5034578;28;20030;-71
2021/12/08 08:32:39;;;;;;;8.23;2.28;;;;;;;4.65;80.04;99403.44;5022352;28;20032;-70
2021/12/08 08:35:29;;;;;;;8.85;2.40;;;;;;;4.74;80.63;99406.63;5014776;28;20033;-70
2021/12/08 08:37:55;;;;;;;9.52;2.58;;;;;;;4.70;80.46;99392.84;5014694;28;20469;-70
2021/12/08 08:40:29;;;;;;;5.78;2.00;;;;;;;4.71;80.38;99374.91;5014487;28;20030;-70
2021/12/08 08:42:57;;;;;;;10.45;2.78;;;;;;;4.71;80.10;99378.44;5014766;28;20465;-70
2021/12/08 08:45:30;;;;;;;8.50;2.13;;;;;;;4.78;80.79;99381.84;5014247;28;20421;-70
2021/12/08 08:48:06;;;;;;;9.35;2.30;;;;;;;4.80;80.20;99381.59;5030700;28;20041;-70
2021/12/08 08:50:42;;;;;;;10.82;2.75;;;;;;;4.79;79.93;99382.66;5033980;28;20485;-70
2021/12/08 08:53:09;;;;;;;10.40;2.42;;;;;;;4.76;80.12;99373.22;5008233;28;20033;-71
2021/12/08 08:55:40;;;;;;;11.88;2.22;;;;;;;4.77;80.17;99374.00;5013722;28;20512;-70
2021/12/08 08:58:08;;;;;;;12.60;2.10;;;;;;;4.80;79.29;99381.59;5013964;28;20432;-70
2021/12/08 09:00:42;;;;;;;12.60;2.30;;;;;;;4.85;79.34;99394.38;5011664;28;20360;-70
2021/12/08 09:03:14;;;;;;;12.63;2.90;;;;;;;4.76;78.79;99397.31;5014334;28;20117;-71
2021/12/08 09:05:45;;;;;;;11.50;2.35;;;;;;;4.74;79.26;99383.34;5013624;28;20029;-70
2021/12/08 09:08:13;;;;;;;7.28;2.10;;;;;;;4.73;79.58;99389.72;5023391;28;20442;-70
2021/12/08 09:11:01;;;;;;;12.30;2.35;;;;;;;4.77;79.65;99401.66;5033343;28;20030;-70
2021/12/08 09:13:34;;;;;;;10.88;2.40;;;;;;;4.77;79.52;99398.97;5005226;28;20037;-74
2021/12/08 09:16:09;;;;;;;9.85;2.13;;;;;;;4.77;79.60;99390.94;5016052;28;20534;-73
2021/12/08 09:18:48;;;;;;;10.23;2.35;;;;;;;4.81;78.68;99393.16;5015345;28;20132;-72
2021/12/08 09:21:40;;;;;;;8.68;2.67;;;;;;;4.79;78.78;99394.19;5029726;28;20101;-74
2021/12/08 09:24:09;;;;;;;8.27;1.80;;;;;;;5.25;80.49;99407.28;5012575;28;20038;-70
2021/12/08 09:26:43;;;;;;;10.43;2.17;;;;;;;5.36;77.92;99413.75;5025588;28;20397;-70
2021/12/08 09:29:19;;;;;;;7.45;1.80;;;;;;;5.28;77.65;99412.19;5017992;28;20108;-72
2021/12/08 09:31:55;;;;;;;9.50;2.22;;;;;;;5.17;77.57;99424.50;5009752;28;20022;-73
2021/12/08 09:34:28;;;;;;;8.20;2.20;;;;;;;5.11;78.04;99436.94;5029268;28;20627;-70
2021/12/08 09:36:58;;;;;;;11.88;2.65;;;;;;;5.11;77.88;99439.63;5032264;28;20037;-72
2021/12/08 09:39:43;;;;;;;8.23;2.50;;;;;;;5.13;77.72;99426.84;5031200;28;20113;-70
2021/12/08 09:42:21;;;;;;;8.45;2.40;;;;;;;5.15;77.84;99430.09;5032577;28;20071;-70
2021/12/08 09:44:54;;;;;;;13.18;2.42;;;;;;;5.13;78.47;99431.34;5032463;28;20132;-71
2021/12/08 09:47:20;;;;;;;8.73;2.28;;;;;;;5.15;77.94;99419.38;5032456;28;20029;-70
2021/12/08 09:49:47;;;;;;;7.95;2.00;;;;;;;5.20;78.29;99431.28;5032661;28;20053;-70
2021/12/08 09:52:15;;;;;;;7.50;2.03;;;;;;;5.19;77.88;99418.91;5032716;28;20056;-70
2021/12/08 09:54:41;;;;;;;6.53;2.00;;;;;;;5.21;77.89;99416.81;5032279;28;20037;-70
2021/12/08 09:57:11;;;;;;;8.68;2.50;;;;;;;5.22;77.36;99426.50;5032351;28;20089;-70
2021/12/08 09:59:45;;;;;;;7.75;1.98;;;;;;;5.25;77.86;99418.03;5032352;28;20457;-70
2021/12/08 10:02:10;;;;;;;7.95;1.83;;;;;;;5.29;77.16;99408.47;5030217;28;20087;-70
2021/12/08 10:04:35;;;;;;;13.52;2.65;;;;;;;5.28;77.28;99398.78;5032351;28;20037;-70
2021/12/08 10:07:02;;;;;;;10.90;2.13;;;;;;;5.28;77.65;99396.94;5030526;28;20057;-70
2021/12/08 10:09:28;;;;;;;7.55;1.95;;;;;;;5.29;76.78;99395.06;5032127;28;20025;-70
2021/12/08 10:11:54;;;;;;;8.23;2.15;;;;;;;5.32;77.04;99397.31;5031574;28;20051;-70
2021/12/08 10:14:21;;;;;;;9.63;2.25;;;;;;;5.35;76.79;99402.22;5030621;28;20029;-70
2021/12/08 10:16:50;;;;;;;6.68;1.58;;;;;;;5.37;77.13;99400.09;5029295;28;20037;-70
2021/12/08 10:19:17;;;;;;;8.73;2.00;;;;;;;5.41;77.15;99382.53;5031962;28;20036;-70
2021/12/08 10:21:44;;;;;;;9.07;1.80;;;;;;;5.44;76.80;99392.00;5031724;28;20029;-71
2021/12/08 10:24:16;;;;;;;8.45;2.05;;;;;;;5.47;76.29;99384.28;5031504;28;20049;-70
2021/12/08 10:26:42;;;;;;;6.32;1.90;;;;;;;5.44;76.69;99384.75;5031957;28;20078;-71
2021/12/08 10:29:08;;;;;;;5.53;1.83;;;;;;;5.53;75.91;99381.75;5031956;28;20033;-71
2021/12/08 10:31:41;;;;;;;6.18;1.88;;;;;;;5.53;76.39;99379.09;5022557;28;20082;-70
2021/12/08 10:36:55;;;;;;;11.40;2.15;;;;;;;5.56;75.82;99367.91;5031976;28;20037;-70
2021/12/08 10:39:35;;;;;;;7.90;1.85;;;;;;;5.50;76.26;99359.69;5014343;28;20428;-70
2021/12/08 10:42:03;;;;;;;12.05;2.08;;;;;;;5.55;76.67;99363.56;5031597;28;20061;-72
2021/12/08 10:44:55;;;;;;;8.70;1.83;;;;;;;5.64;75.41;99362.19;5031625;28;20726;-71
2021/12/08 10:47:25;;;;;;;7.18;1.98;;;;;;;5.57;76.03;99356.09;5014842;28;20053;-70
2021/12/08 10:55:11;;;;;;;10.88;2.35;;;;;;;5.63;76.97;99356.00;5017042;28;20088;-70
2021/12/08 10:57:37;;;;;;;10.65;2.30;;;;;;;5.67;76.81;99361.72;5036143;28;20034;-69
2021/12/08 11:00:12;;;;;;;8.50;2.05;;;;;;;5.70;76.07;99377.38;5036240;28;20041;-70
2021/12/08 11:02:46;;;;;;;10.18;2.30;;;;;;;5.76;75.67;99384.50;5027159;28;20501;-69
2021/12/08 11:05:23;;;;;;;6.65;1.90;;;;;;;5.77;76.61;99386.16;5035699;28;20037;-69
2021/12/08 11:07:57;;;;;;;6.13;1.65;;;;;;;5.80;76.92;99401.78;5031976;28;20464;-69
2021/12/08 11:10:23;;;;;;;9.18;2.50;;;;;;;5.85;76.50;99406.47;5030348;28;20087;-69
2021/12/08 11:12:48;;;;;;;8.25;2.00;;;;;;;5.83;77.25;99409.38;5035895;28;20037;-68
2021/12/08 11:15:20;;;;;;;7.93;2.10;;;;;;;5.91;76.06;99410.13;5023233;28;20026;-68
2021/12/08 11:17:46;;;;;;;12.30;2.47;;;;;;;5.91;76.43;99410.13;5015919;28;20109;-69
2021/12/08 11:20:18;;;;;;;7.68;1.80;;;;;;;5.93;76.38;99426.81;5015903;28;20101;-68
2021/12/08 11:22:57;;;;;;;7.03;2.00;;;;;;;5.96;75.44;99420.97;5028870;28;20036;-69
2021/12/08 11:25:32;;;;;;;10.68;2.08;;;;;;;6.02;75.58;99430.81;5035829;28;20056;-68
2021/12/08 11:28:17;;;;;;;9.70;2.28;;;;;;;6.06;75.13;99417.78;5035801;28;20021;-69
2021/12/08 11:30:43;;;;;;;5.38;1.92;;;;;;;5.96;75.26;99429.03;5014183;28;20128;-69
2021/12/08 11:33:19;;;;;;;7.80;1.92;;;;;;;6.03;75.24;99429.78;5035663;28;20104;-73
2021/12/08 11:35:46;;;;;;;9.30;2.15;;;;;;;6.02;75.70;99434.34;5035454;28;20053;-71
2021/12/08 11:38:12;;;;;;;9.32;2.28;;;;;;;6.05;75.60;99437.63;5035584;28;20029;-70
2021/12/08 11:40:38;;;;;;;6.97;1.98;;;;;;;6.12;75.33;99443.72;5035481;28;20030;-71
2021/12/08 11:43:13;;;;;;;8.15;2.00;;;;;;;6.11;76.28;99448.25;5034898;28;20075;-71
2021/12/08 11:45:40;;;;;;;8.07;1.90;;;;;;;6.17;75.88;99463.44;5034816;28;20049;-72
2021/12/08 11:48:26;;;;;;;7.43;2.13;;;;;;;6.24;76.51;99462.53;5035131;28;20045;-71
2021/12/08 11:51:12;;;;;;;5.93;2.08;;;;;;;6.24;75.65;99462.53;5034161;28;20047;-70
2021/12/08 11:53:39;;;;;;;5.30;1.73;;;;;;;6.25;74.98;99464.16;5030473;28;20040;-69
2021/12/08 11:56:05;;;;;;;7.38;2.00;;;;;;;6.26;75.87;99468.50;5034710;28;20033;-70
2021/12/08 11:58:31;;;;;;;6.25;1.90;;;;;;;6.25;75.10;99469.53;5018988;28;20479;-70
2021/12/08 12:00:57;;;;;;;7.07;1.88;;;;;;;6.29;74.99;99465.34;5032496;28;20108;-69
2021/12/08 12:03:22;;;;;;;7.97;1.95;;;;;;;6.32;76.18;99473.75;5034580;28;20366;-69
2021/12/08 12:05:49;;;;;;;10.57;2.15;;;;;;;6.31;74.62;99473.97;5033851;28;20037;-69
2021/12/08 12:08:18;;;;;;;11.43;2.20;;;;;;;6.31;74.38;99484.72;5034072;28;20037;-71
2021/12/08 12:10:49;;;;;;;5.43;1.65;;;;;;;6.32;73.70;99487.19;5017012;28;20120;-69
2021/12/08 12:13:15;;;;;;;6.25;1.60;;;;;;;6.32;74.39;99492.56;5034225;28;20105;-69
2021/12/08 12:15:47;;;;;;;5.90;2.30;;;;;;;6.31;74.96;99500.84;5016193;28;20121;-69
2021/12/08 12:18:13;;;;;;;4.40;1.98;;;;;;;6.33;74.95;99512.19;5034262;28;20025;-68
2021/12/08 12:20:43;;;;;;;6.90;1.80;;;;;;;6.30;74.67;99520.72;5016296;28;20049;-69
2021/12/08 12:23:11;;;;;;;8.10;2.10;;;;;;;6.30;74.50;99526.91;5034600;28;20037;-69
2021/12/08 12:26:04;;;;;;;7.57;1.85;;;;;;;6.31;76.17;99525.88;5034162;28;20072;-69
2021/12/08 12:29:06;;;;;;;11.00;2.10;;;;;;;6.30;76.12;99528.78;5033935;28;20039;-69
2021/12/08 12:31:45;;;;;;;9.35;2.33;;;;;;;6.36;75.50;99525.19;5032406;28;20022;-69
2021/12/08 12:34:23;;;;;;;6.35;1.80;;;;;;;6.28;75.03;99528.16;5031349;28;20597;-69
2021/12/08 12:36:48;;;;;;;8.48;1.85;;;;;;;6.28;75.33;99536.22;5023736;28;20087;-70
2021/12/08 12:39:17;;;;;;;4.18;1.50;;;;;;;6.29;75.42;99540.56;5033735;28;20025;-69
2021/12/08 12:41:44;;;;;;;7.55;1.60;;;;;;;6.27;76.20;99537.28;5033342;28;20025;-69